createdAt,value
2023-05-15T00:00:10.632Z,6.22
2023-05-15T00:01:42.286Z,6.10
2023-05-15T00:03:14.144Z,6.70
2023-05-15T00:04:47.515Z,6.40
2023-05-15T00:06:19.946Z,6.63
2023-05-15T00:07:51.648Z,6.20
2023-05-15T00:09:23.339Z,6.45
2023-05-15T00:11:01.546Z,7.18
2023-05-15T00:12:33.902Z,7.82
2023-05-15T00:14:05.857Z,7.20
2023-05-15T00:15:37.558Z,7.20
2023-05-15T00:17:09.895Z,7.70
2023-05-15T00:18:41.667Z,8.50
2023-05-15T00:20:14.736Z,8.02
2023-05-15T00:21:46.398Z,8.23
2023-05-15T00:23:18.002Z,7.75
2023-05-15T00:24:49.684Z,7.60
2023-05-15T00:26:23.251Z,7.63
2023-05-15T00:27:54.983Z,7.18
2023-05-15T00:29:26.639Z,7.40
2023-05-15T00:30:58.280Z,7.07
2023-05-15T00:32:30.330Z,7.63
2023-05-15T00:34:02.072Z,7.43
2023-05-15T00:35:35.109Z,7.22
2023-05-15T00:37:07.333Z,6.95
2023-05-15T00:38:38.932Z,7.38
2023-05-15T00:40:11.825Z,7.40
2023-05-15T00:41:43.456Z,7.47
2023-05-15T00:43:15.297Z,7.70
2023-05-15T00:44:47.005Z,8.88
2023-05-15T00:46:19.167Z,8.43
2023-05-15T00:47:50.928Z,8.10
2023-05-15T00:49:22.618Z,9.40
2023-05-15T00:50:55.738Z,8.60
2023-05-15T00:52:27.429Z,8.70
2023-05-15T00:53:59.675Z,8.38
2023-05-15T00:55:31.655Z,8.05
2023-05-15T00:57:04.090Z,8.23
2023-05-15T00:58:35.714Z,7.90
2023-05-15T01:00:10.505Z,8.38
2023-05-15T01:01:45.157Z,7.30
2023-05-15T01:03:16.879Z,7.68
2023-05-15T01:04:48.804Z,8.23
2023-05-15T01:06:21.872Z,7.95
2023-05-15T01:07:57.904Z,8.13
2023-05-15T01:09:30.021Z,7.80
2023-05-15T01:11:01.951Z,7.45
2023-05-15T01:12:33.631Z,7.75
2023-05-15T01:14:06.501Z,7.75
2023-05-15T01:15:38.104Z,7.70
2023-05-15T01:17:09.758Z,7.28
2023-05-15T01:18:41.531Z,7.72
2023-05-15T01:20:13.357Z,7.38
2023-05-15T01:22:23.777Z,6.28
2023-05-15T01:24:04.447Z,7.60
2023-05-15T01:25:59.682Z,6.68
2023-05-15T01:27:33.357Z,7.22
2023-05-15T01:29:07.341Z,7.05
2023-05-15T01:30:39.877Z,6.47
2023-05-15T01:32:20.187Z,7.28
2023-05-15T01:33:54.914Z,6.78
2023-05-15T01:35:29.032Z,10.20
2023-05-15T01:37:01.414Z,5.97
2023-05-15T01:38:35.876Z,7.43
2023-05-15T01:40:09.181Z,6.57
2023-05-15T01:41:43.027Z,6.82
2023-05-15T01:43:18.656Z,6.53
2023-05-15T01:44:52.163Z,6.40
2023-05-15T01:46:23.861Z,7.28
2023-05-15T01:47:55.743Z,6.57
2023-05-15T01:49:27.794Z,6.63
2023-05-15T01:51:02.520Z,6.10
2023-05-15T01:52:35.004Z,7.10
2023-05-15T01:54:06.938Z,6.90
2023-05-15T01:55:39.049Z,7.50
2023-05-15T01:57:11.682Z,7.60
2023-05-15T01:58:44.966Z,7.32
2023-05-15T02:00:16.783Z,8.00
2023-05-15T02:01:48.551Z,7.50
2023-05-15T02:03:21.167Z,7.80
2023-05-15T02:04:52.940Z,8.55
2023-05-15T02:06:24.560Z,7.80
2023-05-15T02:07:56.154Z,9.45
2023-05-15T02:09:27.775Z,7.43
2023-05-15T02:11:00.755Z,7.03
2023-05-15T02:12:32.432Z,7.18
2023-05-15T02:14:06.087Z,6.90
2023-05-15T02:15:37.778Z,7.32
2023-05-15T02:17:09.604Z,7.30
2023-05-15T02:18:41.486Z,7.28
2023-05-15T02:20:14.291Z,7.20
2023-05-15T02:21:45.951Z,8.50
2023-05-15T02:23:17.698Z,6.53
2023-05-15T02:24:49.367Z,7.35
2023-05-15T02:26:26.787Z,8.20
2023-05-15T02:28:00.105Z,6.80
2023-05-15T02:29:36.377Z,7.65
2023-05-15T02:31:10.297Z,7.07
2023-05-15T02:32:44.729Z,7.68
2023-05-15T02:34:18.656Z,7.00
2023-05-15T02:35:52.436Z,6.32
2023-05-15T02:37:27.436Z,6.75
2023-05-15T02:38:59.192Z,6.68
2023-05-15T02:40:31.020Z,6.88
2023-05-15T02:42:02.700Z,6.75
2023-05-15T02:43:34.354Z,6.20
2023-05-15T02:45:08.565Z,7.25
2023-05-15T02:46:40.246Z,6.70
2023-05-15T02:48:12.031Z,6.93
2023-05-15T02:49:43.707Z,7.32
2023-05-15T02:51:15.493Z,7.38
2023-05-15T02:52:47.277Z,7.32
2023-05-15T02:54:18.922Z,7.80
2023-05-15T02:55:50.632Z,7.63
2023-05-15T02:57:22.336Z,7.50
2023-05-15T02:58:54.014Z,8.70
2023-05-15T03:00:27.321Z,8.75
2023-05-15T03:01:59.069Z,9.18
2023-05-15T03:03:30.863Z,9.68
2023-05-15T03:05:02.621Z,9.32
2023-05-15T03:06:34.369Z,9.70
2023-05-15T03:08:06.116Z,10.60
2023-05-15T03:09:37.802Z,9.98
2023-05-15T03:11:09.434Z,11.07
2023-05-15T03:12:41.202Z,11.73
2023-05-15T03:14:12.917Z,10.38
2023-05-15T03:15:45.966Z,10.60
2023-05-15T03:17:17.629Z,11.10
2023-05-15T03:18:49.419Z,10.68
2023-05-15T03:20:21.091Z,10.80
2023-05-15T03:21:52.804Z,11.35
2023-05-15T03:23:24.614Z,11.35
2023-05-15T03:24:56.317Z,12.85
2023-05-15T03:26:28.066Z,11.68
2023-05-15T03:27:59.944Z,13.63
2023-05-15T03:29:31.569Z,10.80
2023-05-15T03:31:08.650Z,12.60
2023-05-15T03:32:40.355Z,10.00
2023-05-15T03:34:12.030Z,11.00
2023-05-15T03:35:44.671Z,12.50
2023-05-15T03:37:16.387Z,12.10
2023-05-15T03:38:48.283Z,13.18
2023-05-15T03:40:20.016Z,11.35
2023-05-15T03:41:51.745Z,10.88
2023-05-15T03:43:23.833Z,11.30
2023-05-15T03:44:56.461Z,11.82
2023-05-15T03:46:29.650Z,13.77
2023-05-15T03:48:01.445Z,11.73
2023-05-15T03:49:33.094Z,11.65
2023-05-15T03:51:04.754Z,11.10
2023-05-15T03:52:36.565Z,11.75
2023-05-15T03:54:08.213Z,12.23
2023-05-15T03:55:39.862Z,12.15
2023-05-15T03:57:11.532Z,15.75
2023-05-15T03:58:43.384Z,13.85
2023-05-15T04:00:16.912Z,14.10
2023-05-15T04:02:03.563Z,14.68
2023-05-15T04:03:36.238Z,13.23
2023-05-15T04:05:08.629Z,13.07
2023-05-15T04:06:40.338Z,13.65
2023-05-15T04:08:12.582Z,11.93
2023-05-15T04:09:44.268Z,14.15
2023-05-15T04:11:16.265Z,15.35
2023-05-15T04:12:48.283Z,14.90
2023-05-15T04:14:19.888Z,12.98
2023-05-15T04:15:51.632Z,12.50
2023-05-15T04:17:24.730Z,12.75
2023-05-15T04:18:56.351Z,12.32
2023-05-15T04:20:27.992Z,12.85
2023-05-15T04:21:59.569Z,13.20
2023-05-15T04:23:31.243Z,13.98
2023-05-15T04:25:02.857Z,14.15
2023-05-15T04:26:34.596Z,13.30
2023-05-15T04:28:06.898Z,13.77
2023-05-15T04:29:38.605Z,12.73
2023-05-15T04:31:10.844Z,11.32
2023-05-15T04:32:43.986Z,11.98
2023-05-15T04:34:15.968Z,12.80
2023-05-15T04:35:48.150Z,12.63
2023-05-15T04:37:19.770Z,13.15
2023-05-15T04:38:51.746Z,11.13
2023-05-15T04:40:23.542Z,14.63
2023-05-15T04:41:55.167Z,12.32
2023-05-15T04:43:26.816Z,11.88
2023-05-15T04:44:58.495Z,12.60
2023-05-15T04:46:30.245Z,12.13
2023-05-15T04:48:03.611Z,11.27
2023-05-15T04:49:35.315Z,11.45
2023-05-15T04:51:07.681Z,11.75
2023-05-15T04:52:39.259Z,13.80
2023-05-15T04:54:10.925Z,13.45
2023-05-15T04:55:42.515Z,13.25
2023-05-15T04:57:14.132Z,14.02
2023-05-15T04:58:45.744Z,11.35
2023-05-15T05:00:17.973Z,12.13
2023-05-15T05:01:49.745Z,13.00
2023-05-15T05:03:23.214Z,13.68
2023-05-15T05:04:54.886Z,13.10
2023-05-15T05:06:27.004Z,14.82
2023-05-15T05:07:59.701Z,13.35
2023-05-15T05:09:31.331Z,14.77
2023-05-15T05:11:03.397Z,14.85
2023-05-15T05:12:35.058Z,14.57
2023-05-15T05:14:07.887Z,14.50
2023-05-15T05:15:42.482Z,13.82
2023-05-15T05:17:23.528Z,14.70
2023-05-15T05:19:12.857Z,14.95
2023-05-15T05:20:44.585Z,14.00
2023-05-15T05:22:16.244Z,13.98
2023-05-15T05:23:47.926Z,13.95
2023-05-15T05:25:19.982Z,13.73
2023-05-15T05:26:51.570Z,12.65
2023-05-15T05:28:23.290Z,15.70
2023-05-15T05:29:55.481Z,13.40
2023-05-15T05:31:27.209Z,14.77
2023-05-15T05:32:59.076Z,14.48
2023-05-15T05:34:32.194Z,13.60
2023-05-15T05:36:05.196Z,14.27
2023-05-15T05:37:38.710Z,14.10
2023-05-15T05:39:11.953Z,12.77
2023-05-15T05:40:43.663Z,13.85
2023-05-15T05:42:15.366Z,14.88
2023-05-15T05:43:47.107Z,14.15
2023-05-15T05:45:18.899Z,13.52
2023-05-15T05:46:50.613Z,12.40
2023-05-15T05:48:22.392Z,13.13
2023-05-15T05:49:55.710Z,12.95
2023-05-15T05:51:27.368Z,11.90
2023-05-15T05:52:59.218Z,13.15
2023-05-15T05:54:30.898Z,13.38
2023-05-15T05:56:02.687Z,12.68
2023-05-15T05:57:34.310Z,13.75
2023-05-15T05:59:06.458Z,14.70
2023-05-15T06:00:38.125Z,12.88
2023-05-15T06:02:10.043Z,13.50
2023-05-15T06:03:43.255Z,12.63
2023-05-15T06:05:16.922Z,13.13
2023-05-15T06:06:48.848Z,14.30
2023-05-15T06:08:20.730Z,12.90
2023-05-15T06:09:52.671Z,14.85
2023-05-15T06:11:25.523Z,14.85
2023-05-15T06:12:57.384Z,14.80
2023-05-15T06:14:30.208Z,14.68
2023-05-15T06:16:01.947Z,14.68
2023-05-15T06:17:33.638Z,15.63
2023-05-15T06:19:05.586Z,14.85
2023-05-15T06:20:38.698Z,14.48
2023-05-15T06:22:10.392Z,15.77
2023-05-15T06:23:42.084Z,16.08
2023-05-15T06:25:14.749Z,17.50
2023-05-15T06:26:46.481Z,18.30
2023-05-15T06:28:18.129Z,15.27
2023-05-15T06:29:49.751Z,15.82
2023-05-15T06:31:21.552Z,15.02
2023-05-15T06:32:53.588Z,14.35
2023-05-15T06:34:25.321Z,14.32
2023-05-15T06:35:58.285Z,15.38
2023-05-15T06:37:30.156Z,14.57
2023-05-15T06:39:01.818Z,15.35
2023-05-15T06:40:33.419Z,15.60
2023-05-15T06:42:05.778Z,15.75
2023-05-15T06:43:38.422Z,15.38
2023-05-15T06:45:10.474Z,14.82
2023-05-15T06:46:42.131Z,14.00
2023-05-15T06:48:14.086Z,15.77
2023-05-15T06:49:46.628Z,13.65
2023-05-15T06:51:19.660Z,14.35
2023-05-15T06:52:51.408Z,12.48
2023-05-15T06:54:23.061Z,12.40
2023-05-15T06:55:54.759Z,13.90
2023-05-15T06:57:26.403Z,13.13
2023-05-15T06:58:58.070Z,13.00
2023-05-15T07:00:29.805Z,12.93
2023-05-15T07:02:01.835Z,12.77
2023-05-15T07:03:33.619Z,12.20
2023-05-15T07:05:06.980Z,12.10
2023-05-15T07:06:40.102Z,12.35
2023-05-15T07:08:11.717Z,11.20
2023-05-15T07:09:45.680Z,10.80
2023-05-15T07:11:17.373Z,11.75
2023-05-15T07:12:48.974Z,13.52
2023-05-15T07:14:20.657Z,15.55
2023-05-15T07:15:52.280Z,11.52
2023-05-15T07:17:24.141Z,10.48
2023-05-15T07:18:55.816Z,11.98
2023-05-15T07:20:30.302Z,11.20
2023-05-15T07:22:07.884Z,10.82
2023-05-15T07:23:39.617Z,10.45
2023-05-15T07:25:11.308Z,10.63
2023-05-15T07:26:50.604Z,10.75
2023-05-15T07:28:29.504Z,11.27
2023-05-15T07:30:01.602Z,10.73
2023-05-15T07:31:33.691Z,9.45
2023-05-15T07:33:07.250Z,8.45
2023-05-15T07:34:39.067Z,8.77
2023-05-15T07:36:10.654Z,7.82
2023-05-15T07:37:43.645Z,6.97
2023-05-15T07:39:15.997Z,8.43
2023-05-15T07:40:47.784Z,9.10
2023-05-15T07:42:19.452Z,8.60
2023-05-15T07:43:51.125Z,9.10
2023-05-15T07:45:23.349Z,9.05
2023-05-15T07:46:55.236Z,8.80
2023-05-15T07:48:26.908Z,9.27
2023-05-15T07:49:58.497Z,7.57
2023-05-15T07:51:30.181Z,7.70
2023-05-15T07:53:03.230Z,6.82
2023-05-15T07:54:34.911Z,7.35
2023-05-15T07:56:09.745Z,7.40
2023-05-15T07:57:41.491Z,7.00
2023-05-15T07:59:13.146Z,6.40
2023-05-15T08:00:45.023Z,6.15
2023-05-15T08:02:16.708Z,7.20
2023-05-15T08:03:49.016Z,6.53
2023-05-15T08:05:30.226Z,6.65
2023-05-15T08:07:01.957Z,6.80
2023-05-15T08:08:35.154Z,6.75
2023-05-15T08:10:07.961Z,8.40
2023-05-15T08:11:39.583Z,8.10
2023-05-15T08:13:11.200Z,6.95
2023-05-15T08:14:42.958Z,6.57
2023-05-15T08:16:14.710Z,6.60
2023-05-15T08:17:49.939Z,5.82
2023-05-15T08:19:24.054Z,5.32
2023-05-15T08:21:01.263Z,5.00
2023-05-15T08:22:38.340Z,5.55
2023-05-15T08:24:11.844Z,5.40
2023-05-15T08:25:43.550Z,4.95
2023-05-15T08:27:18.329Z,5.22
2023-05-15T08:28:50.227Z,5.55
2023-05-15T08:30:22.352Z,5.78
2023-05-15T08:31:54.223Z,5.13
2023-05-15T08:33:25.880Z,5.55
2023-05-15T08:34:58.333Z,5.10
2023-05-15T08:36:30.170Z,5.10
2023-05-15T08:38:03.232Z,5.25
2023-05-15T08:39:36.343Z,5.20
2023-05-15T08:41:16.180Z,5.30
2023-05-15T08:42:50.589Z,6.50
2023-05-15T08:44:22.401Z,7.13
2023-05-15T08:45:54.283Z,6.47
2023-05-15T08:47:26.091Z,4.97
2023-05-15T08:48:57.881Z,5.03
2023-05-15T08:50:29.489Z,5.22
2023-05-15T08:52:01.233Z,5.43
2023-05-15T08:53:32.890Z,5.18
2023-05-15T08:55:06.798Z,5.07
2023-05-15T08:56:38.520Z,5.72
2023-05-15T08:58:10.493Z,5.63
2023-05-15T08:59:42.350Z,5.80
2023-05-15T09:01:14.096Z,5.57
2023-05-15T09:02:45.844Z,5.30
2023-05-15T09:04:17.512Z,4.97
2023-05-15T09:05:49.186Z,5.20
2023-05-15T09:07:20.836Z,4.70
2023-05-15T09:08:52.690Z,5.45
2023-05-15T09:10:25.776Z,5.18
2023-05-15T09:11:57.489Z,4.22
2023-05-15T09:13:29.759Z,4.60
2023-05-15T09:15:12.054Z,5.30
2023-05-15T09:16:44.457Z,5.00
2023-05-15T09:18:17.138Z,4.70
2023-05-15T09:19:48.848Z,5.10
2023-05-15T09:21:34.234Z,4.85
2023-05-15T09:23:22.797Z,5.50
2023-05-15T09:24:55.273Z,5.32
2023-05-15T09:26:28.231Z,5.43
2023-05-15T09:28:00.039Z,5.13
2023-05-15T09:29:32.057Z,5.40
2023-05-15T09:31:04.268Z,5.28
2023-05-15T09:32:37.341Z,5.60
2023-05-15T09:34:10.197Z,5.03
2023-05-15T09:35:41.902Z,5.07
2023-05-15T09:37:28.268Z,4.93
2023-05-15T09:39:00.514Z,4.68
2023-05-15T09:40:32.466Z,4.35
2023-05-15T09:42:09.329Z,3.70
2023-05-15T09:43:41.160Z,3.70
2023-05-15T09:45:17.617Z,3.60
2023-05-15T09:46:50.305Z,3.50
2023-05-15T09:48:22.030Z,3.42
2023-05-15T09:49:56.711Z,4.07
2023-05-15T09:51:28.587Z,3.67
2023-05-15T09:53:00.473Z,3.25
2023-05-15T09:54:32.124Z,3.50
2023-05-15T09:56:04.002Z,3.65
2023-05-15T09:57:37.769Z,4.00
2023-05-15T09:59:10.107Z,4.60
2023-05-15T10:00:48.456Z,3.50
2023-05-15T10:02:23.827Z,3.85
2023-05-15T10:03:59.622Z,3.42
2023-05-15T10:05:42.506Z,2.75
2023-05-15T10:07:14.920Z,2.70
2023-05-15T10:08:54.244Z,2.90
2023-05-15T10:10:27.313Z,3.00
2023-05-15T10:12:04.571Z,2.80
2023-05-15T10:13:39.844Z,3.00
2023-05-15T10:15:12.279Z,3.03
2023-05-15T10:16:44.284Z,3.00
2023-05-15T10:18:25.096Z,2.97
2023-05-15T10:19:58.899Z,2.80
2023-05-15T10:21:31.662Z,3.10
2023-05-15T10:23:06.418Z,2.90
2023-05-15T10:24:38.315Z,3.08
2023-05-15T10:26:13.709Z,3.00
2023-05-15T10:27:45.463Z,3.03
2023-05-15T10:29:21.210Z,3.22
2023-05-15T10:30:53.042Z,4.00
2023-05-15T10:32:24.713Z,3.83
2023-05-15T10:33:59.380Z,3.45
2023-05-15T10:35:31.288Z,3.08
2023-05-15T10:37:03.116Z,3.20
2023-05-15T10:38:34.754Z,3.22
2023-05-15T10:40:07.552Z,3.40
2023-05-15T10:41:40.048Z,3.10
2023-05-15T10:43:12.203Z,3.38
2023-05-15T10:44:45.331Z,3.28
2023-05-15T10:46:22.231Z,3.30
2023-05-15T10:47:53.945Z,3.83
2023-05-15T10:49:27.913Z,3.50
2023-05-15T10:51:00.135Z,3.58
2023-05-15T10:52:32.186Z,3.45
2023-05-15T10:54:04.217Z,3.60
2023-05-15T10:55:36.408Z,3.40
2023-05-15T10:57:08.057Z,3.55
2023-05-15T10:58:39.823Z,3.00
2023-05-15T11:00:29.279Z,3.35
2023-05-15T11:02:19.547Z,3.45
2023-05-15T11:03:53.112Z,3.90
2023-05-15T11:05:26.450Z,3.60
2023-05-15T11:07:12.815Z,3.35
2023-05-15T11:08:45.255Z,4.10
2023-05-15T11:10:38.724Z,3.58
2023-05-15T11:12:11.618Z,3.35
2023-05-15T11:14:14.335Z,3.42
2023-05-15T11:15:54.262Z,3.35
2023-05-15T11:17:45.414Z,3.53
2023-05-15T11:19:29.583Z,3.50
2023-05-15T11:21:18.135Z,3.65
2023-05-15T11:23:05.830Z,3.95
2023-05-15T11:24:58.519Z,3.63
2023-05-15T11:26:33.497Z,3.63
2023-05-15T11:28:05.564Z,3.50
2023-05-15T11:29:39.013Z,3.20
2023-05-15T11:31:15.553Z,3.22
2023-05-15T11:32:56.046Z,3.40
2023-05-15T11:34:34.341Z,3.38
2023-05-15T11:36:08.848Z,3.10
2023-05-15T11:37:43.971Z,3.10
2023-05-15T11:39:15.622Z,3.40
2023-05-15T11:40:48.377Z,3.28
2023-05-15T11:42:20.050Z,3.20
2023-05-15T11:43:51.691Z,2.80
2023-05-15T11:45:23.276Z,2.92
2023-05-15T11:46:56.382Z,2.90
2023-05-15T11:48:31.386Z,2.60
2023-05-15T11:50:04.948Z,2.90
2023-05-15T11:51:42.994Z,2.90
2023-05-15T11:53:14.979Z,2.45
2023-05-15T11:54:46.613Z,2.78
2023-05-15T11:56:18.627Z,2.75
2023-05-15T11:57:50.880Z,2.58
2023-05-15T11:59:22.554Z,2.63
2023-05-15T12:00:57.888Z,2.60
2023-05-15T12:02:34.094Z,2.60
2023-05-15T12:04:22.732Z,2.85
2023-05-15T12:05:59.499Z,2.42
2023-05-15T12:07:36.148Z,2.50
2023-05-15T12:09:13.436Z,2.80
2023-05-15T12:10:48.089Z,2.70
2023-05-15T12:12:23.533Z,2.72
2023-05-15T12:13:58.343Z,2.95
2023-05-15T12:15:32.110Z,2.60
2023-05-15T12:17:12.590Z,2.63
2023-05-15T12:18:47.292Z,2.35
2023-05-15T12:20:19.165Z,2.70
2023-05-15T12:21:50.951Z,2.47
2023-05-15T12:23:23.506Z,2.97
2023-05-15T12:24:58.593Z,2.70
2023-05-15T12:26:36.356Z,2.78
2023-05-15T12:28:08.118Z,2.80
2023-05-15T12:29:40.395Z,3.10
2023-05-15T12:31:12.157Z,3.35
2023-05-15T12:32:43.833Z,2.72
2023-05-15T12:34:19.218Z,2.75
2023-05-15T12:35:54.116Z,2.70
2023-05-15T12:37:26.084Z,3.10
2023-05-15T12:38:58.080Z,2.78
2023-05-15T12:40:29.881Z,2.95
2023-05-15T12:42:01.532Z,2.83
2023-05-15T12:43:33.293Z,3.13
2023-05-15T12:45:16.715Z,2.80
2023-05-15T12:46:48.343Z,2.80
2023-05-15T12:48:20.207Z,3.17
2023-05-15T12:49:56.696Z,2.78
2023-05-15T12:51:30.097Z,2.88
2023-05-15T12:53:03.132Z,3.03
2023-05-15T12:54:39.047Z,2.88
2023-05-15T12:56:10.672Z,2.70
2023-05-15T12:57:42.742Z,3.13
2023-05-15T12:59:14.370Z,3.05
2023-05-15T13:00:50.209Z,3.05
2023-05-15T13:02:23.267Z,4.78
2023-05-15T13:03:55.161Z,3.83
2023-05-15T13:05:28.510Z,3.65
2023-05-15T13:07:00.180Z,3.38
2023-05-15T13:08:31.956Z,3.30
2023-05-15T13:10:05.169Z,3.17
2023-05-15T13:11:36.818Z,2.95
2023-05-15T13:13:08.646Z,2.90
2023-05-15T13:14:41.804Z,2.80
2023-05-15T13:16:20.870Z,2.90
2023-05-15T13:17:56.494Z,3.00
2023-05-15T13:19:30.908Z,2.80
2023-05-15T13:21:06.016Z,3.70
2023-05-15T13:22:37.706Z,4.13
2023-05-15T13:24:11.037Z,3.10
2023-05-15T13:25:42.740Z,7.32
2023-05-15T13:27:14.756Z,3.05
2023-05-15T13:28:46.384Z,2.63
2023-05-15T13:30:18.256Z,3.35
2023-05-15T13:31:49.976Z,3.13
2023-05-15T13:33:21.655Z,4.75
2023-05-15T13:34:58.787Z,3.47
2023-05-15T13:36:32.070Z,3.88
2023-05-15T13:38:04.233Z,2.90
2023-05-15T13:39:35.951Z,3.05
2023-05-15T13:41:07.703Z,3.70
2023-05-15T13:42:40.523Z,5.97
2023-05-15T13:44:12.203Z,4.40
2023-05-15T13:45:43.971Z,4.60
2023-05-15T13:47:15.720Z,4.78
2023-05-15T13:48:47.372Z,3.80
2023-05-15T13:50:19.077Z,5.90
2023-05-15T13:51:52.100Z,3.92
2023-05-15T13:53:23.736Z,3.85
2023-05-15T13:54:55.713Z,4.03
2023-05-15T13:56:27.336Z,4.10
2023-05-15T13:57:59.005Z,4.30
2023-05-15T13:59:30.667Z,4.10
2023-05-15T14:01:05.845Z,4.30
2023-05-15T14:02:37.773Z,3.63
2023-05-15T14:04:09.600Z,4.53
2023-05-15T14:05:41.382Z,4.60
2023-05-15T14:07:14.439Z,8.05
2023-05-15T14:08:46.102Z,3.60
2023-05-15T14:10:17.787Z,2.63
2023-05-15T14:11:49.430Z,2.80
2023-05-15T14:13:21.084Z,2.70
2023-05-15T14:14:52.852Z,2.08
2023-05-15T14:16:26.785Z,2.00
2023-05-15T14:17:58.549Z,2.40
2023-05-15T14:19:30.376Z,2.15
2023-05-15T14:21:02.065Z,2.10
2023-05-15T14:22:35.216Z,2.10
2023-05-15T14:24:07.806Z,2.50
2023-05-15T14:25:40.759Z,2.30
2023-05-15T14:27:12.451Z,2.50
2023-05-15T14:28:44.176Z,2.30
2023-05-15T14:30:15.916Z,2.40
2023-05-15T14:31:47.615Z,2.60
2023-05-15T14:33:19.478Z,2.60
2023-05-15T14:34:51.575Z,2.60
2023-05-15T14:36:23.230Z,2.42
2023-05-15T14:37:56.671Z,2.45
2023-05-15T14:39:28.276Z,2.70
2023-05-15T14:40:59.927Z,2.70
2023-05-15T14:42:31.622Z,2.65
2023-05-15T14:44:03.285Z,2.60
2023-05-15T14:45:35.001Z,2.75
2023-05-15T14:47:07.887Z,2.85
2023-05-15T14:48:39.659Z,2.95
2023-05-15T14:50:13.492Z,3.10
2023-05-15T14:51:47.366Z,2.80
2023-05-15T14:53:22.140Z,3.20
2023-05-15T14:55:07.957Z,3.40
2023-05-15T14:56:41.202Z,2.90
2023-05-15T14:58:12.917Z,2.72
2023-05-15T14:59:44.631Z,2.65
2023-05-15T15:01:16.376Z,2.60
2023-05-15T15:02:48.100Z,2.80
2023-05-15T15:04:20.371Z,2.55
2023-05-15T15:05:54.402Z,2.70
2023-05-15T15:07:30.915Z,2.97
2023-05-15T15:09:13.808Z,2.63
2023-05-15T15:10:45.539Z,2.70
2023-05-15T15:12:17.201Z,2.60
2023-05-15T15:13:48.909Z,2.75
2023-05-15T15:15:20.922Z,2.75
2023-05-15T15:16:52.533Z,3.83
2023-05-15T15:18:26.337Z,3.63
2023-05-15T15:19:58.138Z,3.35
2023-05-15T15:21:29.839Z,4.20
2023-05-15T15:23:02.637Z,3.20
2023-05-15T15:24:35.609Z,2.92
2023-05-15T15:26:07.214Z,3.00
2023-05-15T15:27:38.960Z,2.65
2023-05-15T15:29:10.649Z,3.15
2023-05-15T15:30:42.396Z,3.00
2023-05-15T15:32:14.310Z,3.10
2023-05-15T15:33:46.034Z,3.25
2023-05-15T15:35:17.812Z,3.00
2023-05-15T15:36:49.531Z,3.00
2023-05-15T15:38:21.201Z,3.10
2023-05-15T15:39:54.640Z,3.53
2023-05-15T15:41:26.417Z,3.40
2023-05-15T15:42:58.116Z,2.90
2023-05-15T15:44:29.795Z,2.92
2023-05-15T15:46:01.597Z,3.08
2023-05-15T15:47:33.374Z,4.57
2023-05-15T15:49:06.770Z,5.07
2023-05-15T15:50:38.720Z,5.70
2023-05-15T15:52:10.590Z,5.13
2023-05-15T15:53:45.919Z,3.60
2023-05-15T15:55:19.313Z,3.85
2023-05-15T15:56:51.496Z,3.10
2023-05-15T15:58:24.020Z,3.00
2023-05-15T15:59:55.891Z,2.95
2023-05-15T16:01:27.768Z,3.10
2023-05-15T16:02:59.730Z,2.92
2023-05-15T16:04:31.824Z,2.90
2023-05-15T16:06:03.838Z,3.08
2023-05-15T16:07:36.167Z,3.08
2023-05-15T16:09:18.700Z,3.00
2023-05-15T16:10:52.750Z,3.00
2023-05-15T16:12:24.800Z,3.13
2023-05-15T16:13:56.423Z,2.92
2023-05-15T16:15:28.370Z,3.00
2023-05-15T16:17:02.683Z,3.40
2023-05-15T16:18:34.542Z,2.80
2023-05-15T16:20:07.360Z,3.00
2023-05-15T16:21:39.113Z,3.10
2023-05-15T16:23:14.249Z,3.10
2023-05-15T16:24:47.952Z,3.10
2023-05-15T16:26:21.519Z,3.40
2023-05-15T16:27:53.202Z,3.10
2023-05-15T16:29:25.116Z,3.40
2023-05-15T16:30:56.753Z,3.53
2023-05-15T16:32:28.553Z,3.17
2023-05-15T16:34:02.814Z,3.28
2023-05-15T16:35:36.833Z,2.70
2023-05-15T16:37:08.491Z,2.97
2023-05-15T16:38:40.132Z,3.03
2023-05-15T16:40:12.595Z,2.88
2023-05-15T16:41:52.487Z,3.17
2023-05-15T16:43:24.207Z,3.05
2023-05-15T16:44:56.092Z,3.05
2023-05-15T16:46:27.821Z,2.92
2023-05-15T16:47:59.756Z,3.10
2023-05-15T16:49:32.184Z,2.67
2023-05-15T16:51:10.142Z,3.08
2023-05-15T16:52:45.872Z,3.00
2023-05-15T16:54:17.601Z,3.30
2023-05-15T16:55:49.305Z,2.75
2023-05-15T16:57:22.609Z,3.13
2023-05-15T16:58:54.470Z,3.20
2023-05-15T17:00:28.904Z,3.15
2023-05-15T17:02:04.839Z,3.05
2023-05-15T17:03:36.861Z,2.90
2023-05-15T17:05:09.543Z,3.08
2023-05-15T17:06:41.406Z,3.28
2023-05-15T17:08:13.127Z,2.83
2023-05-15T17:10:03.034Z,3.10
2023-05-15T17:11:34.857Z,3.13
2023-05-15T17:13:07.956Z,2.97
2023-05-15T17:14:39.594Z,3.13
2023-05-15T17:16:11.261Z,3.25
2023-05-15T17:17:43.004Z,3.30
2023-05-15T17:19:14.859Z,3.22
2023-05-15T17:20:49.701Z,3.30
2023-05-15T17:22:21.551Z,3.28
2023-05-15T17:23:54.296Z,3.35
2023-05-15T17:25:26.467Z,3.50
2023-05-15T17:26:59.571Z,3.10
2023-05-15T17:28:35.872Z,3.40
2023-05-15T17:30:12.532Z,3.30
2023-05-15T17:31:44.346Z,3.25
2023-05-15T17:33:16.171Z,3.60
2023-05-15T17:34:47.897Z,3.38
2023-05-15T17:36:25.766Z,3.08
2023-05-15T17:37:57.798Z,3.30
2023-05-15T17:39:29.579Z,3.40
2023-05-15T17:41:01.314Z,3.90
2023-05-15T17:42:33.197Z,3.72
2023-05-15T17:44:06.340Z,3.40
2023-05-15T17:45:38.070Z,3.70
2023-05-15T17:47:10.310Z,3.88
2023-05-15T17:48:42.093Z,3.90
2023-05-15T17:50:13.783Z,3.10
2023-05-15T17:51:45.424Z,3.67
2023-05-15T17:53:17.433Z,3.90
2023-05-15T17:54:49.331Z,3.85
2023-05-15T17:56:21.758Z,3.45
2023-05-15T17:57:53.564Z,3.47
2023-05-15T17:59:26.563Z,3.67
2023-05-15T18:00:58.215Z,3.55
2023-05-15T18:02:29.934Z,3.60
2023-05-15T18:04:01.676Z,3.30
2023-05-15T18:05:33.393Z,3.55
2023-05-15T18:07:07.703Z,3.20
2023-05-15T18:08:39.787Z,3.42
2023-05-15T18:10:11.458Z,3.25
2023-05-15T18:11:43.238Z,3.13
2023-05-15T18:13:20.236Z,3.33
2023-05-15T18:14:54.076Z,3.85
2023-05-15T18:16:28.361Z,3.30
2023-05-15T18:18:00.258Z,3.70
2023-05-15T18:19:32.517Z,3.67
2023-05-15T18:21:05.621Z,3.88
2023-05-15T18:22:38.790Z,3.58
2023-05-15T18:24:12.040Z,4.18
2023-05-15T18:25:43.932Z,3.97
2023-05-15T18:27:21.538Z,4.13
2023-05-15T18:28:55.905Z,4.00
2023-05-15T18:30:28.922Z,4.35
2023-05-15T18:32:01.947Z,4.00
2023-05-15T18:33:33.897Z,3.92
2023-05-15T18:35:08.159Z,4.28
2023-05-15T18:36:39.770Z,3.95
2023-05-15T18:38:11.417Z,3.65
2023-05-15T18:39:48.117Z,3.70
2023-05-15T18:41:19.936Z,3.67
2023-05-15T18:42:51.713Z,4.00
2023-05-15T18:44:23.492Z,3.58
2023-05-15T18:45:56.520Z,3.25
2023-05-15T18:47:28.229Z,3.65
2023-05-15T18:49:02.755Z,3.58
2023-05-15T18:51:04.367Z,4.28
2023-05-15T18:52:36.391Z,4.50
2023-05-15T18:54:08.138Z,4.60
2023-05-15T18:55:39.836Z,3.95
2023-05-15T18:57:11.634Z,4.72
2023-05-15T18:58:43.366Z,4.75
2023-05-15T19:00:23.713Z,4.10
2023-05-15T19:02:07.425Z,4.10
2023-05-15T19:03:39.325Z,4.35
2023-05-15T19:05:11.728Z,4.50
2023-05-15T19:06:43.914Z,5.45
2023-05-15T19:08:41.004Z,5.10
2023-05-15T19:10:13.080Z,4.30
2023-05-15T19:11:46.695Z,4.13
2023-05-15T19:13:19.032Z,4.53
2023-05-15T19:15:24.050Z,4.10
2023-05-15T19:17:02.925Z,4.22
2023-05-15T19:18:36.145Z,3.90
2023-05-15T19:20:10.817Z,3.85
2023-05-15T19:21:45.048Z,4.47
2023-05-15T19:23:24.540Z,3.78
2023-05-15T19:26:52.579Z,3.92
2023-05-15T19:28:24.459Z,3.70
2023-05-15T19:30:07.142Z,3.63
2023-05-15T19:31:39.214Z,4.07
2023-05-15T19:33:14.286Z,3.80
2023-05-15T19:34:48.977Z,4.00
2023-05-15T19:36:20.652Z,3.95
2023-05-15T19:37:52.273Z,3.90
2023-05-15T19:39:23.922Z,4.00
2023-05-15T19:40:56.671Z,3.97
2023-05-15T19:42:28.386Z,3.53
2023-05-15T19:44:04.340Z,3.80
2023-05-15T19:45:36.041Z,4.60
2023-05-15T19:47:09.709Z,3.83
2023-05-15T19:48:42.199Z,4.22
2023-05-15T19:50:18.281Z,4.03
2023-05-15T19:51:55.060Z,4.00
2023-05-15T19:53:26.975Z,4.05
2023-05-15T19:54:58.648Z,4.50
2023-05-15T19:56:30.320Z,4.30
2023-05-15T19:58:02.647Z,4.40
2023-05-15T19:59:34.730Z,4.80
2023-05-15T20:01:06.437Z,4.40
2023-05-15T20:02:38.205Z,4.63
2023-05-15T20:04:10.149Z,4.10
2023-05-15T20:05:43.324Z,4.30
2023-05-15T20:07:15.068Z,4.20
2023-05-15T20:08:46.789Z,4.90
2023-05-15T20:10:19.116Z,4.68
2023-05-15T20:11:51.093Z,5.05
2023-05-15T20:13:22.768Z,5.00
2023-05-15T20:14:54.510Z,4.43
2023-05-15T20:16:26.383Z,4.30
2023-05-15T20:17:58.307Z,4.85
2023-05-15T20:19:31.488Z,4.70
2023-05-15T20:21:04.824Z,4.60
2023-05-15T20:22:37.198Z,4.53
2023-05-15T20:24:10.319Z,4.47
2023-05-15T20:25:42.087Z,4.40
2023-05-15T20:27:13.946Z,4.70
2023-05-15T20:28:46.194Z,4.32
2023-05-15T20:30:18.003Z,4.60
2023-05-15T20:31:49.906Z,3.85
2023-05-15T20:33:21.652Z,4.25
2023-05-15T20:34:53.914Z,4.40